createdAt,value
2023-05-08T00:00:49.996Z,5.96
2023-05-08T00:06:11.442Z,6.01
2023-05-08T00:11:33.628Z,6.10
2023-05-08T00:16:55.554Z,6.07
2023-05-08T00:22:17.464Z,6.08
2023-05-08T00:27:39.518Z,6.05
2023-05-08T00:33:00.925Z,6.01
2023-05-08T00:38:22.784Z,6.00
2023-05-08T00:43:46.092Z,6.01
2023-05-08T00:49:10.522Z,5.99
2023-05-08T00:54:32.433Z,5.97
2023-05-08T00:59:57.645Z,5.97
2023-05-08T01:05:19.299Z,5.95
2023-05-08T01:10:51.585Z,6.03
2023-05-08T01:16:16.602Z,6.01
2023-05-08T01:21:46.856Z,6.02
2023-05-08T01:27:39.207Z,6.07
2023-05-08T01:33:03.729Z,6.03
2023-05-08T01:38:39.156Z,6.00
2023-05-08T01:44:06.864Z,5.98
2023-05-08T01:49:44.663Z,5.96
2023-05-08T01:55:10.570Z,5.91
2023-05-08T02:00:33.943Z,5.85
2023-05-08T02:05:56.758Z,5.77
2023-05-08T02:11:19.769Z,5.78
2023-05-08T02:16:43.190Z,5.83
2023-05-08T02:22:09.191Z,5.94
2023-05-08T02:27:33.824Z,6.01
2023-05-08T02:32:56.603Z,6.05
2023-05-08T02:38:21.034Z,6.13
2023-05-08T02:43:43.088Z,6.09
2023-05-08T02:49:09.739Z,6.06
2023-05-08T02:54:47.308Z,6.08
2023-05-08T03:00:24.021Z,6.07
2023-05-08T03:05:53.475Z,6.05
2023-05-08T03:11:20.119Z,5.96
2023-05-08T03:16:43.127Z,5.96
2023-05-08T03:22:08.283Z,5.97
2023-05-08T03:27:30.722Z,5.99
2023-05-08T03:32:53.431Z,5.99
2023-05-08T03:38:15.457Z,5.98
2023-05-08T03:43:37.603Z,6.00
2023-05-08T03:49:03.167Z,6.05
2023-05-08T03:54:26.870Z,6.02
2023-05-08T03:59:51.914Z,6.03
2023-05-08T04:05:21.548Z,5.98
2023-05-08T04:10:51.357Z,6.01
2023-05-08T04:16:19.491Z,6.05
2023-05-08T04:21:43.598Z,6.13
2023-05-08T04:27:08.247Z,6.35
2023-05-08T04:32:30.504Z,6.49
2023-05-08T04:37:53.986Z,6.45
2023-05-08T04:43:15.762Z,6.47
2023-05-08T04:48:38.580Z,6.64
2023-05-08T04:54:01.657Z,6.77
2023-05-08T04:59:25.199Z,6.83
2023-05-08T05:04:47.631Z,6.76
2023-05-08T05:10:10.784Z,6.56
2023-05-08T05:15:32.275Z,6.61
2023-05-08T05:20:54.336Z,6.64
2023-05-08T05:26:16.622Z,6.69
2023-05-08T05:31:39.059Z,6.80
2023-05-08T05:37:01.457Z,6.76
2023-05-08T05:42:23.374Z,6.68
2023-05-08T05:47:50.123Z,6.67
2023-05-08T05:53:15.534Z,6.70
2023-05-08T05:58:41.090Z,6.73
2023-05-08T06:04:04.723Z,6.67
2023-05-08T06:09:27.999Z,6.65
2023-05-08T06:14:52.002Z,6.57
2023-05-08T06:20:14.605Z,6.54
2023-05-08T06:25:36.348Z,6.68
2023-05-08T06:30:58.016Z,6.76
2023-05-08T06:36:20.986Z,6.74
2023-05-08T06:41:42.847Z,6.62
2023-05-08T06:47:04.955Z,6.65
2023-05-08T06:52:27.003Z,6.69
2023-05-08T06:57:48.637Z,6.72
2023-05-08T07:03:10.634Z,6.78
2023-05-08T07:08:33.817Z,6.78
2023-05-08T07:13:55.553Z,7.06
2023-05-08T07:19:17.504Z,7.30
2023-05-08T07:24:39.354Z,7.38
2023-05-08T07:30:04.369Z,7.56
2023-05-08T07:35:27.606Z,7.67
2023-05-08T07:40:51.586Z,7.60
2023-05-08T07:46:17.604Z,7.66
2023-05-08T07:51:40.330Z,7.73
2023-05-08T07:57:01.793Z,7.95
2023-05-08T08:02:23.800Z,8.24
2023-05-08T08:07:45.754Z,8.51
2023-05-08T08:13:07.892Z,8.66
2023-05-08T08:18:30.920Z,9.05
2023-05-08T08:23:52.660Z,9.55
2023-05-08T08:29:14.377Z,9.95
2023-05-08T08:34:36.502Z,9.75
2023-05-08T08:39:58.244Z,9.57
2023-05-08T08:45:19.962Z,9.53
2023-05-08T08:50:47.711Z,9.45
2023-05-08T08:56:10.076Z,9.52
2023-05-08T09:01:39.674Z,9.85
2023-05-08T09:07:05.456Z,10.32
2023-05-08T09:12:27.479Z,10.71
2023-05-08T09:17:49.328Z,10.91
2023-05-08T09:23:11.558Z,11.04
2023-05-08T09:28:33.295Z,11.14
2023-05-08T09:33:55.292Z,11.04
2023-05-08T09:39:23.288Z,11.07
2023-05-08T09:44:51.731Z,11.07
2023-05-08T09:50:13.624Z,11.24
2023-05-08T09:55:48.109Z,11.58
2023-05-08T10:01:33.454Z,11.44
2023-05-08T10:06:58.895Z,11.69
2023-05-08T10:12:21.479Z,11.92
2023-05-08T10:18:15.936Z,12.31
2023-05-08T10:23:37.988Z,12.24
2023-05-08T10:29:08.715Z,11.92
2023-05-08T10:34:32.570Z,11.76
2023-05-08T10:39:58.319Z,11.64
2023-05-08T10:45:19.750Z,11.34
2023-05-08T10:50:49.890Z,11.24
2023-05-08T10:56:12.009Z,11.07
2023-05-08T11:01:33.867Z,11.00
2023-05-08T11:06:55.966Z,11.13
2023-05-08T11:12:24.406Z,11.41
2023-05-08T11:17:53.814Z,11.76
2023-05-08T11:23:23.102Z,11.85
2023-05-08T11:28:54.475Z,11.82
2023-05-08T11:34:55.658Z,12.09
2023-05-08T11:40:58.522Z,12.63
2023-05-08T11:46:41.670Z,13.05
2023-05-08T11:52:06.168Z,13.20
2023-05-08T11:57:30.680Z,13.13
2023-05-08T12:02:52.701Z,13.10
2023-05-08T12:08:16.475Z,13.14
2023-05-08T12:13:39.412Z,13.24
2023-05-08T12:19:01.143Z,13.52
2023-05-08T12:24:23.744Z,13.85
2023-05-08T12:29:46.920Z,13.99
2023-05-08T12:35:09.744Z,13.84
2023-05-08T12:40:34.028Z,13.67
2023-05-08T12:45:55.803Z,13.38
2023-05-08T12:51:17.539Z,13.03
2023-05-08T12:56:44.888Z,13.33
2023-05-08T13:02:34.441Z,13.34
2023-05-08T13:08:02.153Z,13.17
2023-05-08T13:13:26.220Z,13.14
2023-05-08T13:18:49.436Z,13.17
2023-05-08T13:24:10.929Z,13.51
2023-05-08T13:29:32.583Z,13.30
2023-05-08T13:34:57.569Z,13.11
2023-05-08T13:40:21.603Z,12.99
2023-05-08T13:45:43.332Z,12.75
2023-05-08T13:51:05.722Z,12.56
2023-05-08T13:56:27.347Z,12.74
2023-05-08T14:01:49.397Z,12.69
2023-05-08T14:07:11.627Z,12.55
2023-05-08T14:12:36.487Z,12.64
2023-05-08T14:17:58.495Z,12.72
2023-05-08T14:23:22.026Z,12.85
2023-05-08T14:28:44.946Z,12.96
2023-05-08T14:34:06.371Z,13.16
2023-05-08T14:39:29.811Z,13.21
2023-05-08T14:44:51.857Z,13.34
2023-05-08T14:50:13.463Z,13.54
2023-05-08T14:55:35.462Z,13.37
2023-05-08T15:00:57.329Z,13.19
2023-05-08T15:06:21.368Z,12.90
2023-05-08T15:11:43.281Z,12.70
2023-05-08T15:17:05.126Z,12.62
2023-05-08T15:22:28.267Z,12.52
2023-05-08T15:27:52.917Z,12.28
2023-05-08T15:33:15.156Z,12.12
2023-05-08T15:38:36.952Z,11.92
2023-05-08T15:43:58.933Z,11.74
2023-05-08T15:49:25.839Z,12.00
2023-05-08T15:54:47.560Z,12.30
2023-05-08T16:00:11.310Z,12.41
2023-05-08T16:05:32.949Z,12.36
2023-05-08T16:10:55.057Z,12.09
2023-05-08T16:16:17.116Z,11.79
2023-05-08T16:21:42.226Z,11.62
2023-05-08T16:27:04.056Z,11.74
2023-05-08T16:32:30.268Z,11.66
2023-05-08T16:37:52.799Z,11.64
2023-05-08T16:43:14.970Z,11.63
2023-05-08T16:48:36.635Z,11.64
2023-05-08T16:53:59.581Z,11.56
2023-05-08T16:59:21.356Z,11.34
2023-05-08T17:04:43.141Z,11.14
2023-05-08T17:10:05.409Z,11.06
2023-05-08T17:15:27.402Z,11.05
2023-05-08T17:20:49.171Z,11.15
2023-05-08T17:26:10.893Z,11.22
2023-05-08T17:31:32.838Z,11.19
2023-05-08T17:36:55.237Z,11.07
2023-05-08T17:42:16.880Z,10.92
2023-05-08T17:47:40.265Z,10.84
2023-05-08T17:53:01.907Z,10.72
2023-05-08T17:58:24.282Z,10.65
2023-05-08T18:03:46.306Z,10.60
2023-05-08T18:09:11.296Z,10.55
2023-05-08T18:14:33.881Z,10.43
2023-05-08T18:19:55.623Z,10.34
2023-05-08T18:25:17.438Z,10.28
2023-05-08T18:30:40.401Z,10.19
2023-05-08T18:36:04.272Z,10.16
2023-05-08T18:41:27.476Z,10.04
2023-05-08T18:46:50.271Z,9.90
2023-05-08T18:52:14.228Z,9.80
2023-05-08T18:57:35.962Z,9.71
2023-05-08T19:02:59.396Z,9.65
2023-05-08T19:08:21.200Z,9.71
2023-05-08T19:13:43.428Z,9.75
2023-05-08T19:19:07.867Z,9.74
2023-05-08T19:24:30.966Z,9.69
2023-05-08T19:29:52.831Z,9.61
2023-05-08T19:35:14.538Z,9.54
2023-05-08T19:40:48.071Z,9.41
2023-05-08T19:46:18.499Z,9.21
2023-05-08T19:51:40.817Z,9.08
2023-05-08T19:57:02.758Z,9.00
2023-05-08T20:02:24.723Z,8.99
2023-05-08T20:07:46.605Z,8.85
2023-05-08T20:13:08.743Z,8.76
2023-05-08T20:18:34.177Z,8.62
2023-05-08T20:23:56.204Z,8.66
2023-05-08T20:29:17.908Z,8.54
2023-05-08T20:34:41.066Z,8.50
2023-05-08T20:40:07.008Z,8.49
2023-05-08T20:45:29.105Z,8.47
2023-05-08T20:50:51.365Z,8.46
2023-05-08T20:56:18.878Z,8.35
2023-05-08T21:01:41.070Z,8.34
2023-05-08T21:07:05.997Z,8.31
2023-05-08T21:12:27.517Z,8.32
2023-05-08T21:17:50.806Z,8.11
2023-05-08T21:23:12.791Z,7.98
2023-05-08T21:28:34.625Z,8.02
2023-05-08T21:33:56.646Z,8.05
2023-05-08T21:39:18.882Z,8.03
2023-05-08T21:44:41.110Z,8.06
2023-05-08T21:50:03.138Z,8.07
2023-05-08T21:55:25.141Z,8.04
2023-05-08T22:00:47.094Z,7.97
2023-05-08T22:06:09.225Z,7.89
2023-05-08T22:11:31.718Z,7.78
2023-05-08T22:16:53.373Z,7.56
2023-05-08T22:22:15.514Z,7.37
2023-05-08T22:27:37.459Z,7.33
2023-05-08T22:33:00.302Z,7.34
2023-05-08T22:38:22.127Z,7.33
2023-05-08T22:43:44.950Z,7.30
2023-05-08T22:49:06.676Z,7.27
2023-05-08T22:54:28.490Z,7.18
2023-05-08T22:59:50.333Z,7.12
2023-05-08T23:05:12.197Z,7.05
2023-05-08T23:10:34.181Z,7.01
2023-05-08T23:15:55.906Z,6.96
2023-05-08T23:21:17.605Z,6.90
2023-05-08T23:26:41.948Z,6.82
2023-05-08T23:32:04.149Z,6.78
2023-05-08T23:37:26.138Z,6.76
2023-05-08T23:42:52.278Z,6.71
2023-05-08T23:48:14.010Z,6.67
2023-05-08T23:53:35.938Z,6.67
2023-05-08T23:58:57.741Z,6.60
